TimeCDT,TemperatureF,Dew PointF,Humidity,Sea Level PressureIn,VisibilityMPH,Wind Direction,Wind SpeedMPH,Gust SpeedMPH,PrecipitationIn,Events,Conditions,WindDirDegrees,DateUTC
12:53 AM,25.0,18.0,75,30.10,6.0,NW,16.1,-,0.00,Snow,Light Snow,310,2013-03-25 05:53:00
1:53 AM,24.1,18.0,77,30.09,10.0,NW,18.4,-,0.00,,Mostly Cloudy,320,2013-03-25 06:53:00
2:53 AM,24.1,19.0,81,30.09,5.0,NW,16.1,-,N/A,,Haze,310,2013-03-25 07:53:00
3:53 AM,26.1,21.0,81,30.08,5.0,NW,17.3,-,N/A,,Haze,310,2013-03-25 08:53:00
4:35 AM,26.6,21.2,80,30.05,2.5,NW,17.3,-,0.00,Snow,Light Snow,320,2013-03-25 09:35:00
4:53 AM,26.1,21.9,84,30.09,3.0,NW,13.8,-,0.00,Snow,Light Snow,310,2013-03-25 09:53:00
5:09 AM,26.6,21.2,80,30.06,2.5,NW,16.1,-,0.00,Snow,Light Snow,310,2013-03-25 10:09:00
5:46 AM,26.6,23.0,86,30.07,2.0,NW,17.3,25.3,0.00,Snow,Light Snow,310,2013-03-25 10:46:00
5:53 AM,27.0,23.0,85,30.10,2.5,NW,18.4,-,0.00,Snow,Light Snow,320,2013-03-25 10:53:00
6:09 AM,26.6,23.0,86,30.08,3.0,NW,17.3,-,0.00,,Overcast,320,2013-03-25 11:09:00
6:22 AM,26.6,23.0,86,30.08,2.5,NW,17.3,-,0.00,Snow,Light Snow,320,2013-03-25 11:22:00
6:53 AM,27.0,23.0,85,30.12,2.0,NW,19.6,-,0.00,Snow,Light Snow,320,2013-03-25 11:53:00
7:21 AM,26.6,21.2,80,30.11,2.0,NNW,25.3,31.1,0.00,,Haze,330,2013-03-25 12:21:00
7:32 AM,26.6,21.2,80,30.11,1.8,NNW,18.4,27.6,0.00,,Haze,340,2013-03-25 12:32:00
7:53 AM,27.0,21.9,81,30.15,2.0,NNW,20.7,-,0.00,,Haze,330,2013-03-25 12:53:00
8:08 AM,26.6,21.2,80,30.13,2.0,NNW,17.3,-,N/A,,Haze,330,2013-03-25 13:08:00
8:46 AM,26.6,21.2,80,30.14,3.0,NNW,18.4,-,N/A,,Haze,330,2013-03-25 13:46:00
8:53 AM,27.0,21.9,81,30.17,3.0,NNW,24.2,29.9,N/A,,Haze,330,2013-03-25 13:53:00
9:53 AM,27.0,21.0,78,30.20,6.0,NNW,19.6,-,N/A,,Haze,330,2013-03-25 14:53:00
10:53 AM,28.0,21.0,75,30.22,6.0,NNW,24.2,28.8,N/A,,Haze,330,2013-03-25 15:53:00
11:53 AM,30.0,23.0,75,30.23,5.0,NNW,19.6,-,N/A,,Haze,330,2013-03-25 16:53:00
12:53 PM,30.9,25.0,79,30.24,3.0,NNW,16.1,-,N/A,,Haze,330,2013-03-25 17:53:00
1:53 PM,32.0,25.0,75,30.24,5.0,NW,20.7,-,0.00,,Haze,320,2013-03-25 18:53:00
2:06 PM,32.0,24.8,75,30.21,3.0,NNW,19.6,-,0.00,Snow,Light Snow,330,2013-03-25 19:06:00
2:24 PM,32.0,24.8,75,30.21,2.5,NNW,18.4,24.2,0.00,Snow,Light Snow,340,2013-03-25 19:24:00
2:33 PM,32.0,24.8,75,30.21,1.5,NNW,18.4,-,0.00,Snow,Light Snow,330,2013-03-25 19:33:00
2:44 PM,32.0,24.8,75,30.21,4.0,NNW,20.7,-,0.00,Snow,Light Snow,330,2013-03-25 19:44:00
2:53 PM,30.9,25.0,79,30.25,2.5,NNW,19.6,26.5,0.00,Snow,Light Snow,340,2013-03-25 19:53:00
3:22 PM,32.0,24.8,75,30.22,3.0,NNW,19.6,-,0.00,Snow,Light Snow,330,2013-03-25 20:22:00
3:26 PM,30.2,24.8,80,30.22,1.8,NNW,20.7,-,0.00,Snow,Light Snow,330,2013-03-25 20:26:00
3:51 PM,30.2,26.6,86,30.22,2.0,NW,16.1,-,0.00,Snow,Light Snow,320,2013-03-25 20:51:00
3:53 PM,30.9,26.1,82,30.25,2.0,NW,17.3,-,0.00,Snow,Light Snow,320,2013-03-25 20:53:00
4:04 PM,32.0,24.8,75,30.23,9.0,NW,18.4,-,0.00,,Overcast,320,2013-03-25 21:04:00
4:53 PM,32.0,24.1,73,30.27,10.0,NW,20.7,25.3,0.00,,Overcast,320,2013-03-25 21:53:00
5:53 PM,32.0,25.0,75,30.28,10.0,NW,15.0,-,N/A,,Overcast,310,2013-03-25 22:53:00
6:53 PM,30.9,23.0,72,30.30,10.0,NW,17.3,-,N/A,,Overcast,320,2013-03-25 23:53:00
7:53 PM,30.9,21.9,69,30.32,10.0,NW,15.0,-,N/A,,Partly Cloudy,320,2013-03-26 00:53:00
8:53 PM,30.0,21.9,72,30.33,10.0,NW,10.4,-,N/A,,Clear,320,2013-03-26 01:53:00
9:53 PM,28.9,21.0,72,30.35,10.0,NW,10.4,-,N/A,,Overcast,320,2013-03-26 02:53:00
10:53 PM,28.9,21.0,72,30.37,10.0,NW,10.4,-,N/A,,Overcast,320,2013-03-26 03:53:00
11:53 PM,28.0,21.0,75,30.37,10.0,NW,10.4,-,N/A,,Overcast,310,2013-03-26 04:53:00